This is the latest recevied weather packets stored in our database for station/object KU9TRY. If no packets are shown the sender has not sent any weather packets the latest 10 day(s).
| Time | Temp. | Humidity | Pressure | Rain* | Wind** | Luminosity | Snow |
|---|---|---|---|---|---|---|---|
| 1777822466 | 13.89° C | 62% | 1022.9 hPa | 0 mm | - | 1001 W/m² | - |
| 1777822164 | 13.89° C | 64% | 1022.8 hPa | 0 mm | - | 936 W/m² | - |
| 1777821860 | 13.89° C | 63% | 1022.8 hPa | 0 mm | - | 940 W/m² | - |
| 1777821558 | 13.33° C | 66% | 1022.9 hPa | 0 mm | - | 949 W/m² | - |
| 1777821256 | 13.33° C | 68% | 1022.9 hPa | 0 mm | - | 890 W/m² | - |
| 1777820953 | 12.78° C | 71% | 1022.7 hPa | 0 mm | - | 912 W/m² | - |
| 1777820649 | 12.78° C | 71% | 1022.7 hPa | 0 mm | - | 926 W/m² | - |
| 1777820345 | 11.67° C | 76% | 1022.8 hPa | 0 mm | - | 807 W/m² | - |
| 1777820043 | 11.67° C | 76% | 1022.9 hPa | 0 mm | - | 981 W/m² | - |
| 1777819739 | 11.11° C | 79% | 1022.9 hPa | 0 mm | - | 1002 W/m² | - |
| 1777819438 | 10.56° C | 81% | 1022.9 hPa | 0 mm | - | 952 W/m² | - |
| 1777819135 | 10.56° C | 82% | 1022.8 hPa | 0 mm | - | 984 W/m² | - |
| 1777818831 | 10.56° C | 82% | 1022.8 hPa | 0 mm | - | 246 W/m² | - |
| 1777818528 | 10° C | 83% | 1022.9 hPa | 0 mm | - | 240 W/m² | - |
| 1777818225 | 10° C | 84% | 1022.7 hPa | 0 mm | - | 239 W/m² | - |
| 1777817921 | 10° C | 84% | 1022.7 hPa | 0 mm | - | 404 W/m² | - |
| 1777817619 | 10° C | 86% | 1022.6 hPa | 0 mm | - | 397 W/m² | - |
| 1777817315 | 9.44° C | 86% | 1022.9 hPa | 0 mm | - | 347 W/m² | - |
| 1777817013 | 8.89° C | 90% | 1022.6 hPa | 0 mm | - | 209 W/m² | - |
| 1777816708 | 8.89° C | 89% | 1022.8 hPa | 0 mm | - | 177 W/m² | - |
| 1777816406 | 8.89° C | 88% | 1022.9 hPa | 0 mm | - | 195 W/m² | - |
| 1777816104 | 8.89° C | 90% | 1022.9 hPa | 0 mm | - | 218 W/m² | - |
| 1777815801 | 8.89° C | 90% | 1022.8 hPa | 0 mm | - | 159 W/m² | - |
| 1777815499 | 8.33° C | 91% | 1022.7 hPa | 0 mm | - | 184 W/m² | - |
| 1777815196 | 7.78° C | 92% | 1022.9 hPa | 0 mm | - | 177 W/m² | - |
* Rain latest hour (hover to see other rain measurements)
** Current wind speed in m/s (hover to see current wind gust speed)